createdAt,value
2018-08-29T00:00:37.782Z,82.54
2018-08-29T00:01:37.776Z,81.78
2018-08-29T00:02:37.760Z,82.54
2018-08-29T00:03:37.750Z,83.51
2018-08-29T00:04:37.741Z,82.84
2018-08-29T00:05:37.705Z,82.64
2018-08-29T00:06:37.699Z,82.74
2018-08-29T00:07:37.686Z,83.03
2018-08-29T00:08:37.666Z,83.56
2018-08-29T00:09:58.667Z,83.65
2018-08-29T00:10:37.639Z,84.23
2018-08-29T00:11:37.618Z,83.47
2018-08-29T00:12:37.612Z,83.47
2018-08-29T00:13:37.594Z,83.94
2018-08-29T00:14:37.587Z,84.04
2018-08-29T00:15:37.582Z,84.52
2018-08-29T00:16:37.549Z,84.04
2018-08-29T00:17:37.548Z,83.85
2018-08-29T00:18:37.521Z,84.42
2018-08-29T00:19:37.510Z,84.04
2018-08-29T00:20:37.512Z,85.28
2018-08-29T00:21:37.478Z,85.10
2018-08-29T00:22:37.464Z,85.77
2018-08-29T00:23:37.452Z,85.58
2018-08-29T00:24:37.435Z,85.58
2018-08-29T00:25:37.435Z,86.01
2018-08-29T00:26:37.422Z,86.11
2018-08-29T00:27:37.393Z,85.82
2018-08-29T00:28:37.401Z,86.21
2018-08-29T00:29:37.362Z,85.72
2018-08-29T00:30:37.406Z,86.21
2018-08-29T00:31:37.352Z,86.78
2018-08-29T00:32:37.326Z,86.30
2018-08-29T00:33:37.317Z,86.30
2018-08-29T00:34:37.304Z,86.11
2018-08-29T00:35:37.274Z,86.30
2018-08-29T00:36:37.275Z,86.68
2018-08-29T00:37:37.246Z,86.78
2018-08-29T00:38:37.241Z,86.78
2018-08-29T00:39:37.219Z,87.35
2018-08-29T00:40:37.212Z,86.58
2018-08-29T00:41:37.216Z,85.92
2018-08-29T00:42:37.184Z,86.30
2018-08-29T00:43:37.157Z,85.92
2018-08-29T00:44:37.157Z,85.92
2018-08-29T00:45:37.129Z,86.01
2018-08-29T00:46:37.115Z,85.44
2018-08-29T00:47:37.115Z,85.53
2018-08-29T00:48:37.085Z,86.40
2018-08-29T00:49:37.076Z,85.53
2018-08-29T00:50:37.061Z,87.35
2018-08-29T00:51:37.058Z,87.07
2018-08-29T00:52:37.029Z,88.02
2018-08-29T00:53:37.030Z,88.31
2018-08-29T00:54:37.003Z,87.84
2018-08-29T00:55:36.988Z,88.56
2018-08-29T00:56:36.986Z,88.94
2018-08-29T00:57:36.951Z,89.61
2018-08-29T00:58:36.959Z,89.80
2018-08-29T00:59:36.950Z,89.51
2018-08-29T01:00:36.911Z,89.61
2018-08-29T01:01:36.895Z,90.76
2018-08-29T01:02:36.889Z,89.61
2018-08-29T01:03:36.883Z,90.67
2018-08-29T01:04:57.871Z,90.72
2018-08-29T01:05:36.846Z,91.05
2018-08-29T01:06:36.824Z,91.05
2018-08-29T01:07:36.829Z,91.72
2018-08-29T01:08:36.828Z,91.43
2018-08-29T01:09:36.780Z,91.19
2018-08-29T01:10:36.772Z,91.82
2018-08-29T01:11:36.768Z,91.05
2018-08-29T01:12:36.750Z,91.05
2018-08-29T01:13:36.750Z,90.67
2018-08-29T01:14:36.728Z,90.76
2018-08-29T01:15:36.693Z,91.34
2018-08-29T01:16:36.678Z,91.24
2018-08-29T01:17:36.666Z,91.10
2018-08-29T01:18:36.652Z,90.91
2018-08-29T01:19:36.645Z,90.72
2018-08-29T01:20:36.623Z,90.28
2018-08-29T01:21:36.607Z,90.95
2018-08-29T01:22:36.590Z,91.39
2018-08-29T01:23:36.577Z,90.62
2018-08-29T01:24:36.589Z,91.05
2018-08-29T01:25:36.549Z,90.47
2018-08-29T01:26:36.542Z,90.09
2018-08-29T01:27:36.513Z,90.57
2018-08-29T01:28:36.524Z,90.19
2018-08-29T01:29:36.496Z,90.95
2018-08-29T01:30:36.470Z,90.38
2018-08-29T01:31:36.459Z,90.47
2018-08-29T01:32:36.445Z,89.90
2018-08-29T01:33:36.443Z,90.00
2018-08-29T01:34:36.420Z,88.46
2018-08-29T01:35:36.396Z,88.65
2018-08-29T01:36:36.386Z,88.46
2018-08-29T01:37:36.366Z,88.27
2018-08-29T01:38:36.373Z,88.60
2018-08-29T01:39:36.343Z,88.84
2018-08-29T01:40:36.321Z,89.13
2018-08-29T01:41:36.327Z,89.71
2018-08-29T01:42:36.306Z,90.57
2018-08-29T01:43:36.281Z,90.76
2018-08-29T01:44:36.279Z,91.05
2018-08-29T01:45:36.250Z,91.49
2018-08-29T01:46:36.270Z,91.05
2018-08-29T01:47:36.218Z,91.24
2018-08-29T01:48:36.213Z,90.53
2018-08-29T01:49:36.189Z,89.71
2018-08-29T01:50:36.178Z,88.94
2018-08-29T01:51:36.194Z,88.46
2018-08-29T01:52:36.143Z,87.98
2018-08-29T01:53:36.126Z,87.79
2018-08-29T01:54:36.120Z,88.17
2018-08-29T01:55:36.105Z,87.88
2018-08-29T01:56:36.087Z,87.98
2018-08-29T01:57:36.083Z,87.31
2018-08-29T01:58:36.056Z,87.98
2018-08-29T01:59:36.038Z,88.27
2018-08-29T02:00:36.027Z,88.75
2018-08-29T02:01:36.014Z,89.13
2018-08-29T02:02:35.993Z,88.46
2018-08-29T02:03:35.999Z,88.84
2018-08-29T02:04:35.966Z,88.46
2018-08-29T02:05:35.948Z,88.17
2018-08-29T02:06:35.941Z,87.98
2018-08-29T02:07:35.952Z,87.88
2018-08-29T02:08:35.908Z,87.79
2018-08-29T02:09:35.894Z,87.50
2018-08-29T02:10:35.878Z,87.98
2018-08-29T02:11:35.863Z,87.60
2018-08-29T02:12:35.879Z,87.79
2018-08-29T02:13:35.849Z,87.21
2018-08-29T02:14:35.832Z,87.70
2018-08-29T02:15:35.803Z,87.41
2018-08-29T02:16:35.789Z,88.17
2018-08-29T02:17:35.771Z,88.65
2018-08-29T02:18:35.772Z,88.37
2018-08-29T02:19:35.740Z,88.65
2018-08-29T02:20:35.726Z,88.37
2018-08-29T02:21:35.713Z,88.84
2018-08-29T02:22:35.708Z,88.27
2018-08-29T02:23:35.699Z,87.98
2018-08-29T02:24:35.664Z,88.27
2018-08-29T02:25:35.670Z,88.27
2018-08-29T02:26:35.640Z,88.75
2018-08-29T02:27:35.624Z,88.37
2018-08-29T02:28:35.641Z,87.98
2018-08-29T02:29:35.590Z,87.98
2018-08-29T02:30:35.584Z,88.08
2018-08-29T02:31:35.579Z,88.65
2018-08-29T02:32:35.555Z,89.18
2018-08-29T02:33:35.535Z,88.80
2018-08-29T02:34:35.539Z,89.90
2018-08-29T02:35:35.509Z,89.86
2018-08-29T02:36:35.500Z,90.53
2018-08-29T02:37:35.475Z,91.58
2018-08-29T02:38:35.468Z,91.77
2018-08-29T02:39:35.457Z,92.54
2018-08-29T02:40:35.432Z,92.35
2018-08-29T02:41:35.427Z,92.63
2018-08-29T02:42:35.403Z,92.44
2018-08-29T02:43:35.379Z,92.44
2018-08-29T02:44:35.382Z,93.40
2018-08-29T02:45:35.355Z,93.11
2018-08-29T02:46:35.335Z,93.49
2018-08-29T02:47:35.325Z,93.49
2018-08-29T02:48:35.310Z,93.54
2018-08-29T02:49:35.326Z,94.02
2018-08-29T02:50:35.284Z,93.93
2018-08-29T02:51:35.275Z,94.69
2018-08-29T02:52:35.255Z,95.46
2018-08-29T02:53:35.234Z,95.75
2018-08-29T02:54:35.221Z,94.98
2018-08-29T02:55:35.221Z,95.46
2018-08-29T02:56:35.189Z,95.65
2018-08-29T02:57:35.169Z,95.07
2018-08-29T02:58:35.159Z,94.89
2018-08-29T02:59:35.138Z,94.69
2018-08-29T03:00:35.138Z,94.69
2018-08-29T03:01:35.105Z,94.50
2018-08-29T03:02:35.093Z,93.93
2018-08-29T03:03:35.072Z,92.78
2018-08-29T03:04:35.077Z,93.83
2018-08-29T03:05:35.076Z,92.97
2018-08-29T03:06:35.041Z,92.58
2018-08-29T03:07:35.023Z,91.72
2018-08-29T03:08:35.003Z,91.25
2018-08-29T03:09:34.989Z,91.49
2018-08-29T03:10:34.974Z,91.58
2018-08-29T03:11:34.977Z,91.29
2018-08-29T03:12:34.950Z,91.58
2018-08-29T03:13:34.932Z,90.91
2018-08-29T03:14:34.906Z,91.19
2018-08-29T03:15:34.898Z,90.91
2018-08-29T03:16:34.895Z,89.76
2018-08-29T03:17:34.865Z,89.76
2018-08-29T03:18:34.873Z,88.70
2018-08-29T03:19:34.834Z,88.23
2018-08-29T03:20:34.835Z,88.13
2018-08-29T03:21:34.827Z,88.03
2018-08-29T03:22:34.804Z,88.51
2018-08-29T03:23:34.783Z,87.84
2018-08-29T03:24:34.768Z,88.03
2018-08-29T03:25:34.743Z,88.03
2018-08-29T03:26:34.770Z,87.94
2018-08-29T03:27:34.714Z,88.42
2018-08-29T03:28:34.702Z,88.32
2018-08-29T03:29:34.683Z,88.32
2018-08-29T03:30:34.664Z,88.99
2018-08-29T03:31:34.649Z,88.80
2018-08-29T03:32:34.648Z,89.37
2018-08-29T03:33:34.620Z,88.90
2018-08-29T03:34:34.613Z,89.76
2018-08-29T03:35:34.594Z,89.37
2018-08-29T03:36:34.575Z,90.14
2018-08-29T03:37:34.592Z,89.47
2018-08-29T03:38:34.550Z,88.80
2018-08-29T03:39:34.527Z,88.70
2018-08-29T03:40:34.518Z,88.85
2018-08-29T03:41:34.501Z,88.76
2018-08-29T03:42:34.533Z,89.72
2018-08-29T03:43:34.471Z,89.81
2018-08-29T03:44:34.455Z,89.33
2018-08-29T03:45:34.440Z,89.33
2018-08-29T03:46:34.425Z,89.90
2018-08-29T03:47:34.409Z,90.86
2018-08-29T03:48:34.414Z,91.25
2018-08-29T03:49:34.374Z,91.53
2018-08-29T03:50:34.364Z,90.96
2018-08-29T03:51:34.358Z,91.15
2018-08-29T03:52:34.341Z,91.25
2018-08-29T03:53:34.320Z,90.96
2018-08-29T03:54:34.339Z,92.49
2018-08-29T03:55:34.285Z,91.49
2018-08-29T03:56:34.268Z,91.53
2018-08-29T03:57:34.266Z,92.11
2018-08-29T03:58:34.266Z,92.49
2018-08-29T03:59:34.228Z,92.44
2018-08-29T04:00:34.210Z,93.30
2018-08-29T04:01:34.196Z,92.97
2018-08-29T04:02:34.174Z,93.30
2018-08-29T04:03:34.193Z,93.88
2018-08-29T04:04:34.150Z,94.55
2018-08-29T04:05:34.135Z,94.65
2018-08-29T04:06:34.120Z,94.65
2018-08-29T04:07:34.098Z,94.65
2018-08-29T04:08:34.088Z,95.89
2018-08-29T04:09:34.091Z,96.18
2018-08-29T04:10:34.062Z,95.51
2018-08-29T04:11:34.040Z,95.65
2018-08-29T04:12:34.042Z,95.94
2018-08-29T04:13:34.007Z,96.03
2018-08-29T04:14:34.008Z,97.18
2018-08-29T04:15:33.977Z,96.89
2018-08-29T04:16:33.966Z,96.89
2018-08-29T04:17:33.951Z,96.89
2018-08-29T04:18:33.932Z,97.56
2018-08-29T04:19:33.933Z,96.22
2018-08-29T04:20:33.915Z,95.75
2018-08-29T04:21:33.885Z,96.32
2018-08-29T04:22:33.893Z,96.22
2018-08-29T04:23:33.859Z,95.84
2018-08-29T04:24:33.849Z,96.42
2018-08-29T04:25:33.856Z,96.42
2018-08-29T04:26:33.804Z,95.65
2018-08-29T04:27:33.797Z,96.03
2018-08-29T04:28:33.774Z,96.13
2018-08-29T04:29:33.779Z,96.32
2018-08-29T04:30:33.748Z,95.65
2018-08-29T04:31:33.739Z,95.89
2018-08-29T04:32:33.784Z,94.45
2018-08-29T04:33:33.699Z,94.65
2018-08-29T04:34:33.687Z,94.84
2018-08-29T04:35:33.678Z,95.70
2018-08-29T04:36:33.665Z,95.89
2018-08-29T04:37:33.636Z,95.22
2018-08-29T04:38:33.614Z,94.84
2018-08-29T04:39:33.604Z,94.55
2018-08-29T04:40:33.633Z,94.45
2018-08-29T04:41:33.569Z,94.17
2018-08-29T04:43:05.173Z,95.41
2018-08-29T04:44:02.581Z,94.26
2018-08-29T04:47:54.913Z,93.88
2018-08-29T04:48:34.160Z,93.50
2018-08-29T04:49:33.456Z,92.92
2018-08-29T04:50:33.469Z,93.88
2018-08-29T04:51:33.415Z,93.12
2018-08-29T04:52:33.412Z,93.40
2018-08-29T04:53:33.406Z,92.54
2018-08-29T04:54:33.386Z,92.25
2018-08-29T04:55:33.380Z,93.69
2018-08-29T04:56:33.357Z,93.12
2018-08-29T04:57:33.316Z,93.69
2018-08-29T04:58:33.322Z,92.83
2018-08-29T04:59:33.310Z,93.12
2018-08-29T05:00:33.278Z,93.40
2018-08-29T05:01:33.257Z,93.12
2018-08-29T05:02:33.252Z,92.73
2018-08-29T05:03:33.275Z,93.02
2018-08-29T05:04:33.250Z,93.02
2018-08-29T05:05:33.192Z,92.83
2018-08-29T05:06:33.188Z,93.79
2018-08-29T05:07:33.180Z,92.73
2018-08-29T05:08:33.154Z,93.30
2018-08-29T05:09:33.136Z,92.73
2018-08-29T05:10:33.147Z,93.07
2018-08-29T05:11:33.110Z,93.07
2018-08-29T05:12:33.134Z,93.26
2018-08-29T05:13:33.110Z,92.01
2018-08-29T05:14:33.083Z,91.53
2018-08-29T05:15:33.057Z,91.15
2018-08-29T05:16:33.029Z,91.25
2018-08-29T05:17:33.012Z,91.34
2018-08-29T05:18:33.014Z,92.30
2018-08-29T05:19:32.978Z,91.44
2018-08-29T05:20:32.966Z,92.11
2018-08-29T05:21:32.984Z,91.15
2018-08-29T05:22:32.941Z,91.15
2018-08-29T05:23:33.023Z,90.48
2018-08-29T05:24:32.953Z,91.44
2018-08-29T05:25:32.996Z,91.05
2018-08-29T05:26:32.949Z,90.00
2018-08-29T05:27:32.861Z,90.29
2018-08-29T05:28:32.847Z,90.23
2018-08-29T05:29:32.824Z,90.72
2018-08-29T05:30:32.825Z,90.43
2018-08-29T05:31:32.796Z,90.91
2018-08-29T05:32:32.776Z,90.53
2018-08-29T05:33:32.768Z,89.86
2018-08-29T05:34:32.749Z,89.47
2018-08-29T05:35:32.733Z,89.95
2018-08-29T05:36:32.738Z,89.66
2018-08-29T05:37:32.702Z,89.37
2018-08-29T05:38:32.707Z,88.70
2018-08-29T05:39:32.672Z,88.03
2018-08-29T05:40:32.682Z,88.80
2018-08-29T05:41:32.643Z,89.47
2018-08-29T05:42:32.623Z,89.86
2018-08-29T05:43:32.625Z,88.70
2018-08-29T05:44:32.593Z,89.66
2018-08-29T05:45:32.582Z,89.18
2018-08-29T05:46:32.569Z,88.80
2018-08-29T05:47:32.632Z,88.23
2018-08-29T05:48:32.559Z,87.41
2018-08-29T05:49:32.522Z,86.50
2018-08-29T05:50:32.503Z,86.83
2018-08-29T05:51:32.491Z,87.12
2018-08-29T05:52:32.474Z,85.78
2018-08-29T05:53:32.452Z,85.58
2018-08-29T05:54:32.460Z,85.88
2018-08-29T05:55:32.497Z,85.49
2018-08-29T05:56:32.413Z,85.49
2018-08-29T05:57:32.400Z,84.82
2018-08-29T05:58:32.385Z,85.11
2018-08-29T05:59:32.382Z,85.21
2018-08-29T06:00:32.367Z,85.68
2018-08-29T06:01:32.365Z,84.72
2018-08-29T06:02:32.321Z,84.82
2018-08-29T06:03:32.303Z,85.58
2018-08-29T06:04:32.294Z,85.01
2018-08-29T06:05:32.277Z,85.05
2018-08-29T06:06:53.282Z,85.25
2018-08-29T06:07:32.249Z,84.58
2018-08-29T06:08:32.234Z,84.00
2018-08-29T06:09:32.232Z,83.71
2018-08-29T06:10:32.202Z,83.61
2018-08-29T06:11:32.204Z,83.52
2018-08-29T06:12:32.186Z,83.61
2018-08-29T06:13:32.154Z,82.65
2018-08-29T06:14:32.145Z,82.75
2018-08-29T06:15:32.129Z,83.23
2018-08-29T06:16:32.126Z,82.89
2018-08-29T06:17:32.100Z,82.65
2018-08-29T06:18:53.100Z,82.70
2018-08-29T06:19:32.084Z,82.79
2018-08-29T06:20:32.051Z,81.84
2018-08-29T06:21:32.054Z,82.21
2018-08-29T06:22:32.024Z,82.12
2018-08-29T06:23:32.029Z,82.31
2018-08-29T06:24:32.003Z,81.54
2018-08-29T06:25:31.975Z,81.74
2018-08-29T06:26:31.968Z,82.31
2018-08-29T06:27:31.948Z,82.07
2018-08-29T06:28:31.947Z,82.16
2018-08-29T06:29:31.933Z,82.79
2018-08-29T06:30:31.903Z,82.70
2018-08-29T06:31:31.896Z,82.16
2018-08-29T06:32:31.922Z,81.49
2018-08-29T06:33:31.878Z,80.82
2018-08-29T06:34:31.863Z,81.10
2018-08-29T06:35:31.835Z,81.40
2018-08-29T06:36:31.818Z,81.40
2018-08-29T06:37:31.809Z,80.43
2018-08-29T06:38:31.782Z,80.63
2018-08-29T06:39:31.807Z,81.01
2018-08-29T06:40:31.780Z,81.01
2018-08-29T06:41:31.741Z,80.82
2018-08-29T06:42:31.725Z,79.80
2018-08-29T06:43:31.719Z,79.80
2018-08-29T06:44:31.713Z,79.80
2018-08-29T06:45:31.683Z,79.42
2018-08-29T06:46:31.664Z,79.32
2018-08-29T06:47:31.666Z,79.32
2018-08-29T06:48:31.636Z,79.52
2018-08-29T06:49:31.625Z,79.32
2018-08-29T06:50:31.634Z,78.45
2018-08-29T06:51:31.607Z,78.45
2018-08-29T06:52:31.577Z,78.75
2018-08-29T06:53:31.566Z,78.55
2018-08-29T06:54:31.552Z,78.45
2018-08-29T06:55:31.552Z,77.88
2018-08-29T06:56:31.521Z,77.88
2018-08-29T06:57:31.507Z,78.45
2018-08-29T06:58:31.497Z,78.45
2018-08-29T06:59:31.479Z,78.27
2018-08-29T07:00:31.490Z,78.75
2018-08-29T07:01:31.454Z,78.75
2018-08-29T07:02:31.448Z,78.75
2018-08-29T07:03:31.425Z,78.30
2018-08-29T07:04:31.405Z,77.92
2018-08-29T07:05:31.404Z,77.06
2018-08-29T07:06:31.417Z,76.86
2018-08-29T07:07:31.368Z,76.42
2018-08-29T07:08:31.357Z,76.52
2018-08-29T07:09:31.411Z,77.09
2018-08-29T07:10:31.320Z,77.38
2018-08-29T07:11:31.315Z,77.00
2018-08-29T07:12:31.311Z,76.23
2018-08-29T07:13:31.277Z,75.49
2018-08-29T07:14:31.279Z,75.69
2018-08-29T07:15:31.271Z,75.02
2018-08-29T07:16:31.243Z,74.44
2018-08-29T07:17:31.222Z,74.05
2018-08-29T07:18:31.245Z,74.25
2018-08-29T07:19:31.204Z,74.54
2018-08-29T07:20:31.191Z,74.73
2018-08-29T07:21:31.174Z,75.11
2018-08-29T07:22:31.166Z,74.44
2018-08-29T07:23:31.138Z,74.82
2018-08-29T07:24:31.160Z,74.25
2018-08-29T07:25:31.139Z,73.96
2018-08-29T07:26:31.099Z,73.42
2018-08-29T07:27:31.105Z,72.94
2018-08-29T07:28:31.076Z,73.32
2018-08-29T07:29:31.222Z,72.26
2018-08-29T07:30:31.050Z,72.26
2018-08-29T07:31:31.035Z,71.88
2018-08-29T07:32:31.022Z,72.01
2018-08-29T07:33:31.006Z,72.11
2018-08-29T07:34:31.017Z,72.68
2018-08-29T07:35:30.995Z,71.34
2018-08-29T07:36:30.970Z,70.56
2018-08-29T07:37:30.950Z,70.86
2018-08-29T07:38:30.943Z,70.66
2018-08-29T07:39:30.945Z,70.18
2018-08-29T07:40:30.913Z,70.18
2018-08-29T07:41:30.931Z,69.79
2018-08-29T07:42:30.896Z,69.70
2018-08-29T07:43:30.880Z,69.73
2018-08-29T07:44:30.894Z,69.41
2018-08-29T07:45:30.855Z,69.31
2018-08-29T07:46:30.840Z,69.31
2018-08-29T07:47:30.826Z,69.22
2018-08-29T07:48:30.861Z,69.83
2018-08-29T07:49:30.799Z,69.25
2018-08-29T07:50:30.801Z,68.77
2018-08-29T07:51:30.770Z,69.15
2018-08-29T07:52:30.763Z,68.96
2018-08-29T07:53:30.748Z,68.87
2018-08-29T07:54:30.737Z,69.67
2018-08-29T07:55:30.740Z,69.38
2018-08-29T07:56:30.703Z,68.23
2018-08-29T07:57:30.700Z,67.36
2018-08-29T07:58:30.686Z,66.97
2018-08-29T07:59:30.672Z,67.16
2018-08-29T08:00:30.658Z,67.26
2018-08-29T08:01:30.784Z,67.36
2018-08-29T08:02:30.635Z,66.69
2018-08-29T08:03:30.622Z,66.30
2018-08-29T08:04:30.622Z,65.91
2018-08-29T08:05:30.595Z,66.14
2018-08-29T08:06:30.584Z,66.43
2018-08-29T08:07:30.672Z,65.95
2018-08-29T08:08:31.064Z,65.50
2018-08-29T08:09:30.579Z,65.88
2018-08-29T08:10:30.544Z,66.27
2018-08-29T08:11:30.517Z,66.17
2018-08-29T08:12:30.522Z,65.40
2018-08-29T08:13:30.493Z,65.01
2018-08-29T08:14:30.490Z,64.66
2018-08-29T08:15:30.503Z,64.37
2018-08-29T08:16:30.460Z,64.15
2018-08-29T08:17:30.455Z,63.95
2018-08-29T08:18:30.430Z,64.34
2018-08-29T08:19:30.422Z,64.53
2018-08-29T08:20:30.417Z,64.08
2018-08-29T08:21:30.395Z,64.76
2018-08-29T08:22:30.414Z,64.66
2018-08-29T08:23:30.373Z,64.37
2018-08-29T08:24:30.381Z,64.28
2018-08-29T08:25:30.346Z,63.60
2018-08-29T08:26:30.335Z,63.73
2018-08-29T08:27:30.323Z,63.82
2018-08-29T08:28:30.307Z,63.82
2018-08-29T08:29:30.299Z,63.63
2018-08-29T08:30:30.306Z,63.43
2018-08-29T08:31:30.275Z,63.73
2018-08-29T08:32:30.263Z,63.73
2018-08-29T08:33:30.250Z,64.34
2018-08-29T08:34:30.253Z,64.63
2018-08-29T08:35:30.230Z,65.40
2018-08-29T08:36:30.212Z,64.76
2018-08-29T08:37:30.201Z,64.66
2018-08-29T08:38:30.214Z,64.59
2018-08-29T08:39:30.199Z,64.14
2018-08-29T08:40:30.237Z,64.24
2018-08-29T08:41:30.156Z,63.18
2018-08-29T08:42:30.144Z,61.56
2018-08-29T08:43:30.135Z,60.72
2018-08-29T08:44:30.121Z,60.33
2018-08-29T08:45:30.113Z,59.39
2018-08-29T08:46:30.116Z,58.81
2018-08-29T08:47:30.093Z,58.55
2018-08-29T08:48:30.246Z,57.51
2018-08-29T08:49:30.457Z,57.06
2018-08-29T08:50:30.093Z,56.86
2018-08-29T08:51:30.044Z,55.53
2018-08-29T08:52:30.036Z,55.17
2018-08-29T08:53:30.023Z,53.93
2018-08-29T08:54:30.011Z,52.31
2018-08-29T08:55:30.003Z,51.23
2018-08-29T08:56:30.006Z,51.67
2018-08-29T08:57:29.977Z,51.19
2018-08-29T08:58:29.980Z,50.04
2018-08-29T08:59:30.002Z,49.29
2018-08-29T09:00:29.946Z,47.36
2018-08-29T09:01:29.957Z,47.75
2018-08-29T09:02:29.924Z,47.88
2018-08-29T09:03:29.915Z,49.10
2018-08-29T09:04:29.914Z,49.32
2018-08-29T09:05:29.891Z,50.07
2018-08-29T09:06:29.898Z,49.92
2018-08-29T09:07:30.070Z,49.27
2018-08-29T09:08:29.864Z,49.12
2018-08-29T09:09:29.850Z,48.17
2018-08-29T09:10:29.834Z,45.19
2018-08-29T09:11:29.852Z,45.78
2018-08-29T09:12:29.821Z,44.63
2018-08-29T09:13:29.809Z,45.23
2018-08-29T09:14:29.929Z,44.26
2018-08-29T09:15:29.786Z,44.14
2018-08-29T09:16:29.775Z,43.85
2018-08-29T09:17:29.787Z,43.85
2018-08-29T09:18:29.754Z,43.65
2018-08-29T09:19:29.750Z,43.63
2018-08-29T09:20:29.737Z,44.31
2018-08-29T09:21:29.727Z,44.24
2018-08-29T09:22:29.735Z,44.14
2018-08-29T09:23:29.709Z,43.57
2018-08-29T09:24:29.695Z,43.87
2018-08-29T09:25:29.690Z,42.32
2018-08-29T09:26:29.680Z,42.25
2018-08-29T09:27:29.701Z,41.78
2018-08-29T09:28:29.724Z,42.17
2018-08-29T09:29:29.689Z,41.58
2018-08-29T09:30:29.647Z,42.68
2018-08-29T09:31:29.642Z,44.04
2018-08-29T09:32:29.630Z,42.97
2018-08-29T09:33:29.635Z,43.65
2018-08-29T09:34:29.617Z,44.04
2018-08-29T09:35:29.611Z,43.96
2018-08-29T09:36:29.619Z,43.10
2018-08-29T09:37:29.619Z,41.93
2018-08-29T09:38:29.605Z,41.93
2018-08-29T09:39:29.587Z,42.52
2018-08-29T09:40:29.577Z,42.32
2018-08-29T09:41:29.571Z,42.32
2018-08-29T09:42:29.567Z,42.91
2018-08-29T09:43:29.579Z,41.54
2018-08-29T09:44:29.557Z,41.07
2018-08-29T09:45:29.582Z,41.66
2018-08-29T09:46:29.613Z,41.07
2018-08-29T09:47:29.541Z,41.07
2018-08-29T09:48:29.542Z,41.07
2018-08-29T09:49:29.527Z,40.88
2018-08-29T09:50:29.529Z,40.97
2018-08-29T09:51:29.539Z,41.07
2018-08-29T09:52:29.521Z,41.07
2018-08-29T09:53:29.509Z,42.15
2018-08-29T09:54:29.527Z,41.36
2018-08-29T09:55:29.504Z,40.78
2018-08-29T09:56:29.501Z,40.31
2018-08-29T09:57:29.491Z,39.94
2018-08-29T09:58:29.538Z,39.84
2018-08-29T09:59:29.593Z,40.03
2018-08-29T10:00:29.486Z,38.29
2018-08-29T10:01:29.494Z,38.39
2018-08-29T10:02:29.499Z,38.08
2018-08-29T10:03:29.550Z,39.98
2018-08-29T10:04:29.553Z,41.58
2018-08-29T10:05:29.497Z,43.02
2018-08-29T10:06:29.469Z,42.51
2018-08-29T10:07:29.459Z,44.34
2018-08-29T10:08:29.461Z,46.15
2018-08-29T10:09:29.453Z,46.91
2018-08-29T10:10:29.531Z,47.86
2018-08-29T10:11:29.467Z,48.51
2018-08-29T10:12:29.456Z,48.32
2018-08-29T10:13:29.446Z,48.80
2018-08-29T10:14:29.441Z,48.03
2018-08-29T10:15:29.459Z,48.80
2018-08-29T10:16:29.449Z,47.74
2018-08-29T10:17:29.480Z,48.15
2018-08-29T10:18:29.422Z,48.17
2018-08-29T10:19:29.409Z,46.86
2018-08-29T10:20:29.413Z,44.19
2018-08-29T10:21:29.426Z,42.60
2018-08-29T10:22:29.402Z,42.21
2018-08-29T10:23:29.399Z,41.82
2018-08-29T10:24:29.387Z,41.17
2018-08-29T10:25:29.386Z,40.76
2018-08-29T10:26:29.394Z,41.03
2018-08-29T10:27:29.399Z,42.38
2018-08-29T10:28:29.374Z,44.19
2018-08-29T10:29:29.372Z,44.07
2018-08-29T10:30:29.368Z,45.08
2018-08-29T10:31:29.361Z,46.69
2018-08-29T10:32:29.375Z,47.83
2018-08-29T10:33:29.352Z,48.41
2018-08-29T10:34:29.366Z,48.51
2018-08-29T10:35:29.343Z,49.27
2018-08-29T10:36:29.349Z,48.63
2018-08-29T10:37:29.348Z,47.15
2018-08-29T10:38:29.330Z,45.03
2018-08-29T10:39:29.327Z,44.21
2018-08-29T10:40:29.323Z,42.68
2018-08-29T10:41:29.313Z,42.30
2018-08-29T10:42:29.359Z,42.44
2018-08-29T10:43:29.304Z,42.93
2018-08-29T10:44:29.303Z,43.12
2018-08-29T10:45:29.297Z,42.90
2018-08-29T10:46:29.295Z,43.12
2018-08-29T10:47:29.311Z,42.36
2018-08-29T10:48:29.285Z,42.46
2018-08-29T10:49:29.344Z,42.94
2018-08-29T10:50:29.275Z,44.37
2018-08-29T10:51:29.279Z,44.79
2018-08-29T10:52:29.294Z,46.05
2018-08-29T10:53:29.264Z,46.69
2018-08-29T10:54:29.273Z,47.64
2018-08-29T10:55:29.256Z,48.25
2018-08-29T10:56:29.252Z,47.10
2018-08-29T10:57:29.328Z,47.08
2018-08-29T10:58:29.237Z,46.78
2018-08-29T10:59:29.248Z,45.46
2018-08-29T11:00:29.250Z,45.12
2018-08-29T11:01:29.230Z,43.55
2018-08-29T11:02:29.224Z,42.38
2018-08-29T11:03:29.217Z,43.36
2018-08-29T11:04:29.235Z,42.46
2018-08-29T11:05:29.297Z,41.99
2018-08-29T11:06:29.211Z,42.29
2018-08-29T11:07:29.205Z,42.61
2018-08-29T11:08:29.220Z,41.25
2018-08-29T11:09:29.204Z,41.29
2018-08-29T11:10:29.194Z,39.35
2018-08-29T11:11:29.275Z,40.48
2018-08-29T11:12:29.205Z,41.89
2018-08-29T11:13:29.204Z,42.19
2018-08-29T11:14:29.182Z,41.42
2018-08-29T11:15:29.185Z,42.38
2018-08-29T11:16:29.179Z,42.52
2018-08-29T11:17:29.181Z,41.27
2018-08-29T11:18:29.193Z,40.70
2018-08-29T11:19:29.174Z,39.35
2018-08-29T11:20:29.173Z,38.86
2018-08-29T11:21:29.168Z,40.68
2018-08-29T11:22:29.215Z,41.74
2018-08-29T11:23:29.185Z,41.62
2018-08-29T11:24:29.168Z,41.72
2018-08-29T11:25:29.155Z,42.19
2018-08-29T11:26:29.151Z,43.99
2018-08-29T11:27:29.156Z,43.90
2018-08-29T11:28:29.313Z,44.71
2018-08-29T11:29:29.170Z,45.57
2018-08-29T11:30:29.159Z,47.08
2018-08-29T11:31:29.144Z,49.78
2018-08-29T11:32:29.140Z,49.10
2018-08-29T11:33:29.131Z,49.56
2018-08-29T11:34:29.150Z,49.82
2018-08-29T11:35:29.122Z,49.44
2018-08-29T11:36:29.127Z,50.41
2018-08-29T11:37:29.118Z,51.35
2018-08-29T11:38:29.128Z,50.41
2018-08-29T11:39:29.106Z,50.60
2018-08-29T11:40:29.108Z,51.16
2018-08-29T11:41:29.098Z,50.58
2018-08-29T11:42:29.141Z,50.87
2018-08-29T11:43:29.090Z,50.38
2018-08-29T11:44:29.093Z,51.16
2018-08-29T11:45:29.089Z,50.51
2018-08-29T11:46:29.065Z,50.51
2018-08-29T11:47:29.059Z,50.99
2018-08-29T11:48:29.049Z,51.48
2018-08-29T11:49:29.069Z,51.38
2018-08-29T11:50:29.029Z,50.41
2018-08-29T11:51:29.036Z,51.38
2018-08-29T11:52:29.025Z,50.80
2018-08-29T11:53:29.027Z,50.51
2018-08-29T11:54:29.021Z,50.41
2018-08-29T11:55:29.016Z,51.38
2018-08-29T11:56:28.996Z,51.50
2018-08-29T11:57:28.986Z,50.41
2018-08-29T11:58:28.980Z,51.21
2018-08-29T11:59:28.993Z,51.18
2018-08-29T12:00:28.982Z,51.48
2018-08-29T12:01:28.957Z,51.77
2018-08-29T12:02:28.951Z,51.79
2018-08-29T12:03:28.957Z,51.70
2018-08-29T12:04:28.937Z,51.89
2018-08-29T12:05:28.948Z,52.47
2018-08-29T12:06:28.921Z,51.50
2018-08-29T12:07:29.022Z,51.40
2018-08-29T12:08:28.906Z,51.48
2018-08-29T12:09:28.902Z,51.67
2018-08-29T12:10:28.905Z,51.70
2018-08-29T12:11:28.899Z,52.28
2018-08-29T12:12:28.873Z,51.40
2018-08-29T12:13:28.867Z,51.60
2018-08-29T12:14:28.860Z,52.09
2018-08-29T12:15:28.860Z,52.35
2018-08-29T12:16:28.841Z,51.50
2018-08-29T12:17:28.849Z,51.31
2018-08-29T12:18:28.824Z,52.19
2018-08-29T12:19:28.911Z,52.57
2018-08-29T12:20:28.812Z,52.96
2018-08-29T12:21:28.797Z,50.92
2018-08-29T12:22:28.812Z,52.21
2018-08-29T12:23:28.803Z,52.50
2018-08-29T12:24:28.779Z,50.65
2018-08-29T12:25:28.770Z,50.07
2018-08-29T12:26:28.785Z,50.07
2018-08-29T12:27:28.774Z,49.80
2018-08-29T12:28:28.762Z,51.14
2018-08-29T12:29:28.750Z,50.85
2018-08-29T12:30:28.736Z,50.95
2018-08-29T12:31:28.807Z,50.65
2018-08-29T12:32:28.712Z,50.46
2018-08-29T12:33:28.724Z,50.85
2018-08-29T12:34:28.726Z,50.36
2018-08-29T12:35:28.694Z,50.65
2018-08-29T12:36:28.684Z,51.60
2018-08-29T12:37:28.779Z,50.92
2018-08-29T12:38:28.684Z,51.01
2018-08-29T12:39:28.665Z,51.21
2018-08-29T12:40:28.653Z,51.60
2018-08-29T12:41:28.646Z,52.37
2018-08-29T12:42:28.634Z,51.18
2018-08-29T12:43:28.643Z,51.28
2018-08-29T12:44:28.760Z,51.09
2018-08-29T12:45:28.617Z,52.35
2018-08-29T12:46:28.608Z,51.28
2018-08-29T12:47:28.644Z,51.38
2018-08-29T12:48:35.541Z,51.67
2018-08-29T12:49:28.627Z,51.75
2018-08-29T12:50:28.832Z,52.23
2018-08-29T12:51:28.790Z,52.23
2018-08-29T12:52:28.807Z,52.50
2018-08-29T12:53:28.577Z,52.78
2018-08-29T12:54:29.034Z,52.62
2018-08-29T12:55:28.536Z,52.50